KBMT

Details ICAO KBMT
Name BEAUMONT MUNI
Region United States
Timezone America/Chicago (UTC-5.0)
Plans Departing 27
Arriving 15
Stats Elevation 32 ft / 10 m (AMSL)
Location 30.070107° -94.214770°
Runways 2
Magnetic Variation 1.731° E
Sunrise 2018-05-21 11:21:26 UTC / 2018-05-21 06:21:26 Local
Sunset 2018-05-22 01:08:22 UTC / 2018-05-21 20:08:22 Local
Advertisement - Login to hide

Runways

ID Width Length Bearing (true) Bearing (mag) Surface Threshold Offset Overrun Length
13 75 ft / 23 m 3,982 ft / 1,214 m 132.14° 130.41° Asphalt 332 ft / 101 m 0 ft / 0 m
16 100 ft / 30 m 2,307 ft / 703 m 169.06° 167.33° Grass 0 ft / 0 m 0 ft / 0 m
31 75 ft / 23 m 3,982 ft / 1,214 m 312.14° 310.41° Asphalt 67 ft / 20 m 0 ft / 0 m
34 100 ft / 30 m 2,307 ft / 703 m 349.06° 347.33° Grass 0 ft / 0 m 0 ft / 0 m

Map

Weather


0- 5 10 15 20 25 30 35+ Temperature / ° C

Clouds and Precipitation
Forecast for 2018-05-21 18:00 UTC. Updated 6 hours ago

Ground ~20,000 ft ~40,000 ft Winds

METAR

KBMT 212255Z AUTO 00000KT 10SM SCT090 29/20 A2995 RMK AO2 T02890203

TAF

Not found

Frequencies

Unicom 123.00 MHz CTAF/UNICOM
Approach 121.30 MHz APP/DEP
Clearance 121.75 MHz CLNC DEL
Warning: Do not use this data for real-world aviation or navigation. No guarantee of current accuracy is given.